Time;durP1;ratioP1;P1;durP2;ratioP2;P2;SDS_P1;SDS_P2;PMS_P1;PMS_P2;Temp;Humidity;BMP_temperature;BMP_pressure;BME280_temperature;BME280_humidity;BME280_pressure;Samples;Min_cycle;Max_cycle;Signal;HPM_P1;HPM_P2
2021/09/04 00:01:20;;;;;;;17.58;13.50;;;15.70;91.20;;;;;;6244796;23;20073;-87
2021/09/04 00:04:03;;;;;;;;;;;;;;;;;;;;;
2021/09/04 00:07:13;;;;;;;21.33;13.48;;;15.60;91.30;;;;;;6244825;23;20105;-88
2021/09/04 00:09:52;;;;;;;16.80;12.13;;;15.60;91.40;;;;;;6243865;23;20004;-88
2021/09/04 00:12:47;;;;;;;;;;;;;;;;;;;;;
2021/09/04 00:21:19;;;;;;;17.88;13.52;;;15.50;91.40;;;;;;6229262;22;20040;-88
2021/09/04 00:24:01;;;;;;;17.13;13.15;;;15.40;91.50;;;;;;6244645;23;20116;-88
2021/09/04 00:27:09;;;;;;;;;;;;;;;;;;;;;
2021/09/04 00:29:38;;;;;;;20.88;14.57;;;15.40;91.50;;;;;;6245259;22;20060;-88
2021/09/04 00:32:42;;;;;;;26.15;15.18;;;15.40;91.50;;;;;;6244748;23;20099;-89
2021/09/04 00:39:22;;;;;;;21.55;14.82;;;15.30;91.60;;;;;;6223822;23;20027;-87
2021/09/04 00:41:39;;;;;;;;;;;;;;;;;;;;;
2021/09/04 00:44:33;;;;;;;20.00;14.30;;;15.20;91.70;;;;;;6243721;23;20091;-89
2021/09/04 00:47:24;;;;;;;;;;;;;;;;;;;;;
2021/09/04 00:50:07;;;;;;;;;;;15.10;91.80;;;;;;6245245;23;20083;-88
2021/09/04 00:52:46;;;;;;;20.45;14.15;;;15.10;91.80;;;;;;6218643;23;19910;-88
2021/09/04 00:55:59;;;;;;;21.65;13.20;;;15.10;91.80;;;;;;6221113;23;20119;-88
2021/09/04 00:58:28;;;;;;;21.40;13.73;;;15.10;91.90;;;;;;6228799;23;20054;-87
2021/09/04 01:01:31;;;;;;;18.77;13.35;;;15.10;91.80;;;;;;6243589;23;20004;-87
2021/09/04 01:04:05;;;;;;;19.98;13.70;;;15.00;91.90;;;;;;6242883;23;20012;-88
2021/09/04 01:06:53;;;;;;;20.10;13.57;;;15.10;91.90;;;;;;6244075;23;20047;-90
2021/09/04 01:09:28;;;;;;;20.83;14.20;;;15.00;91.80;;;;;;6243480;23;20330;-88
2021/09/04 01:12:19;;;;;;;21.20;13.85;;;15.00;91.80;;;;;;6217522;23;20019;-92
2021/09/04 01:15:26;;;;;;;;;;;;;;;;;;;;;
2021/09/04 01:18:25;;;;;;;22.90;14.80;;;15.00;91.90;;;;;;6244835;23;20596;-87
2021/09/04 01:21:00;;;;;;;;;;;;;;;;;;;;;
2021/09/04 01:23:54;;;;;;;;;;;;;;;;;;;;;
2021/09/04 01:26:33;;;;;;;;;;;;;;;;;;;;;
2021/09/04 01:29:12;;;;;;;21.25;14.50;;;14.90;92.00;;;;;;6245322;22;20075;-87
2021/09/04 01:32:09;;;;;;;19.55;13.10;;;14.90;92.10;;;;;;6243720;23;20004;-88
2021/09/04 01:35:23;;;;;;;22.42;15.07;;;14.80;92.00;;;;;;6243927;22;20140;-89
2021/09/04 01:38:05;;;;;;;19.90;13.65;;;14.80;92.20;;;;;;6244304;22;20028;-89
2021/09/04 01:40:57;;;;;;;;;;;;;;;;;;;;;
2021/09/04 01:43:53;;;;;;;21.23;14.90;;;14.80;92.20;;;;;;6243625;23;20087;-88
2021/09/04 01:46:37;;;;;;;;;;;;;;;;;;;;;
2021/09/04 01:49:34;;;;;;;;;;;;;;;;;;;;;
2021/09/04 01:52:34;;;;;;;;;;;;;;;;;;;;;
2021/09/04 01:55:25;;;;;;;24.13;15.15;;;14.70;92.30;;;;;;6244640;23;20084;-87
2021/09/04 01:58:23;;;;;;;19.60;13.50;;;14.60;92.30;;;;;;6243992;23;20008;-89
2021/09/04 02:01:04;;;;;;;19.23;13.80;;;14.60;92.30;;;;;;6218284;23;20004;-88
2021/09/04 02:03:35;;;;;;;;;;;14.60;92.30;;;;;;6243137;23;20065;-88
2021/09/04 02:06:15;;;;;;;22.13;13.23;;;14.60;92.30;;;;;;6244402;23;20332;-87
2021/09/04 02:08:58;;;;;;;;;;;;;;;;;;;;;
2021/09/04 02:12:00;;;;;;;;;;;;;;;;;;;;;
2021/09/04 02:14:39;;;;;;;24.15;13.35;;;14.60;92.30;;;;;;6244843;23;20096;-87
2021/09/04 02:17:20;;;;;;;19.35;13.20;;;14.60;92.30;;;;;;6220852;23;20015;-88
2021/09/04 02:20:20;;;;;;;22.38;13.85;;;14.60;92.30;;;;;;6220289;23;20338;-90
2021/09/04 02:23:38;;;;;;;23.13;14.00;;;14.60;92.60;;;;;;6244868;23;20323;-89
2021/09/04 02:26:41;;;;;;;20.52;13.88;;;14.60;92.40;;;;;;6240951;23;20008;-88
2021/09/04 02:29:07;;;;;;;24.50;14.52;;;14.60;92.70;;;;;;6240401;23;20038;-89
2021/09/04 02:32:11;;;;;;;;;;;;;;;;;;;;;
2021/09/04 02:35:06;;;;;;;23.60;15.32;;;14.50;92.40;;;;;;6247158;23;20064;-87
2021/09/04 02:40:30;;;;;;;24.90;16.85;;;14.50;92.60;;;;;;6232392;22;20000;-88
2021/09/04 02:43:31;;;;;;;27.08;17.45;;;14.50;92.60;;;;;;6220783;23;20008;-89
2021/09/04 02:46:09;;;;;;;25.85;18.15;;;14.40;92.70;;;;;;6222226;23;20012;-88
2021/09/04 02:48:48;;;;;;;;;;;;;;;;;;;;;
2021/09/04 02:51:45;;;;;;;;;;;;;;;;;;;;;
2021/09/04 02:57:32;;;;;;;25.00;17.60;;;14.30;93.00;;;;;;6246707;23;20008;-88
2021/09/04 03:00:29;;;;;;;27.92;19.35;;;14.30;93.10;;;;;;6246218;23;20012;-87
2021/09/04 03:03:04;;;;;;;29.40;18.15;;;14.30;93.20;;;;;;6247828;22;20008;-88
2021/09/04 03:06:02;;;;;;;;;;;;;;;;;;;;;
2021/09/04 03:08:45;;;;;;;27.30;18.25;;;14.30;93.40;;;;;;6246448;23;20080;-89
2021/09/04 03:11:41;;;;;;;;;;;;;;;;;;;;;
2021/09/04 03:14:10;;;;;;;27.65;18.02;;;14.30;93.50;;;;;;6246321;23;20079;-88
2021/09/04 03:16:40;;;;;;;27.33;17.75;;;14.20;93.50;;;;;;6246220;23;20003;-88
2021/09/04 03:19:27;;;;;;;;;;;;;;;;;;;;;
2021/09/04 03:22:34;;;;;;;27.42;18.02;;;14.30;93.60;;;;;;6245668;23;20091;-87
2021/09/04 03:25:14;;;;;;;31.77;20.63;;;14.30;93.60;;;;;;6245336;23;20004;-88
2021/09/04 03:27:45;;;;;;;28.30;19.52;;;14.30;93.60;;;;;;6245812;23;20016;-89
2021/09/04 03:30:23;;;;;;;;;;;;;;;;;;;;;
2021/09/04 03:33:02;;;;;;;29.60;18.70;;;14.30;93.70;;;;;;6247157;23;19978;-88
2021/09/04 03:35:33;;;;;;;32.42;21.17;;;14.30;93.70;;;;;;6220637;23;20027;-88
2021/09/04 03:41:19;;;;;;;36.15;23.45;;;14.20;93.80;;;;;;6243672;23;20357;-89
2021/09/04 03:43:53;;;;;;;33.55;22.83;;;14.20;93.90;;;;;;6244270;23;20004;-87
2021/09/04 03:46:23;;;;;;;32.28;22.00;;;14.20;94.10;;;;;;6244312;23;20095;-87
2021/09/04 03:49:30;;;;;;;36.70;23.08;;;14.20;94.00;;;;;;6243709;23;20004;-87
2021/09/04 03:52:14;;;;;;;31.55;21.85;;;14.20;94.40;;;;;;6244525;22;20551;-90
2021/09/04 03:54:40;;;;;;;31.77;21.15;;;14.10;94.30;;;;;;6221341;23;20091;-90
2021/09/04 03:57:33;;;;;;;;;;;;;;;;;;;;;
2021/09/04 04:00:40;;;;;;;33.13;21.50;;;14.30;94.30;;;;;;6246025;23;20079;-87
2021/09/04 04:06:27;;;;;;;33.60;20.92;;;14.30;94.20;;;;;;6132506;23;20033;-89
2021/09/04 04:09:29;;;;;;;;;;;;;;;;;;;;;
2021/09/04 04:12:04;;;;;;;36.47;22.17;;;14.30;94.10;;;;;;6231383;23;20477;-90
2021/09/04 04:14:34;;;;;;;33.80;22.30;;;14.30;94.20;;;;;;6244930;23;20004;-88
2021/09/04 04:17:20;;;;;;;30.95;20.92;;;14.30;94.30;;;;;;6244131;23;20004;-88
2021/09/04 04:20:08;;;;;;;33.20;21.38;;;14.30;94.30;;;;;;6244485;23;20003;-89
2021/09/04 04:23:32;;;;;;;31.02;20.73;;;14.30;94.40;;;;;;6219733;23;20145;-88
2021/09/04 04:26:34;;;;;;;28.42;19.20;;;14.30;94.40;;;;;;6242242;22;20000;-88
2021/09/04 04:29:02;;;;;;;26.92;18.90;;;14.30;94.40;;;;;;6239889;22;20456;-89
2021/09/04 04:31:30;;;;;;;;;;;14.30;94.20;;;;;;6244939;23;20715;-89
2021/09/04 04:34:24;;;;;;;27.85;18.67;;;14.40;94.20;;;;;;6245551;23;20324;-89
2021/09/04 04:39:50;;;;;;;28.73;19.08;;;14.40;94.20;;;;;;6228832;23;20446;-89
2021/09/04 04:42:26;;;;;;;27.90;19.35;;;14.40;94.30;;;;;;6243945;23;20012;-89
2021/09/04 04:44:57;;;;;;;27.40;19.23;;;14.40;94.30;;;;;;6243720;23;20031;-88
2021/09/04 04:47:41;;;;;;;29.35;19.33;;;14.40;94.30;;;;;;6244104;23;20422;-87
2021/09/04 04:50:17;;;;;;;25.45;17.90;;;14.40;94.30;;;;;;6244044;23;20182;-88
2021/09/04 04:56:06;;;;;;;;;;;;;;;;;;;;;
2021/09/04 04:58:44;;;;;;;25.20;17.15;;;14.40;94.30;;;;;;6243830;23;19978;-88
2021/09/04 05:01:23;;;;;;;27.48;18.35;;;14.40;94.30;;;;;;6220874;23;20024;-88
2021/09/04 05:03:58;;;;;;;31.40;20.63;;;14.50;94.30;;;;;;6220505;23;20115;-87
2021/09/04 05:06:40;;;;;;;30.27;19.77;;;14.50;94.30;;;;;;6243112;23;20020;-90
2021/09/04 05:09:19;;;;;;;;;;;;;;;;;;;;;
2021/09/04 05:12:00;;;;;;;;;;;;;;;;;;;;;
2021/09/04 05:14:39;;;;;;;33.45;21.52;;;14.50;94.30;;;;;;6246449;23;20075;-89
2021/09/04 05:17:21;;;;;;;30.30;19.42;;;14.60;94.30;;;;;;6220568;23;20501;-88
2021/09/04 05:20:02;;;;;;;;;;;;;;;;;;;;;
2021/09/04 05:22:49;;;;;;;;;;;;;;;;;;;;;
2021/09/04 05:25:27;;;;;;;;;;;;;;;;;;;;;
2021/09/04 05:31:47;;;;;;;32.15;20.75;;;14.60;94.30;;;;;;6237008;22;20005;-90
2021/09/04 05:34:32;;;;;;;;;;;;;;;;;;;;;
2021/09/04 05:37:05;;;;;;;30.05;19.77;;;14.60;94.30;;;;;;6244680;23;20079;-88
2021/09/04 05:39:33;;;;;;;30.48;19.48;;;14.60;94.30;;;;;;6219406;23;20009;-88
2021/09/04 05:42:20;;;;;;;31.95;21.08;;;14.60;94.30;;;;;;6218669;23;20008;-87
2021/09/04 05:45:29;;;;;;;29.70;20.00;;;14.60;94.20;;;;;;6244999;23;20004;-88
2021/09/04 05:48:05;;;;;;;29.83;20.33;;;14.60;94.30;;;;;;6243433;23;20003;-89
2021/09/04 05:51:03;;;;;;;30.35;20.60;;;14.60;94.30;;;;;;6218949;23;20008;-89
2021/09/04 05:53:48;;;;;;;30.15;20.38;;;14.50;94.30;;;;;;6243465;23;20004;-89
2021/09/04 05:56:27;;;;;;;;;;;;;;;;;;;;;
2021/09/04 05:59:24;;;;;;;;;;;;;;;;;;;;;
2021/09/04 06:02:10;;;;;;;33.28;22.05;;;14.60;94.30;;;;;;6245058;23;20083;-89
2021/09/04 06:08:05;;;;;;;32.85;21.55;;;14.50;94.20;;;;;;6230342;22;20000;-87
2021/09/04 06:10:45;;;;;;;29.20;20.23;;;14.50;94.40;;;;;;6224239;23;20055;-87
2021/09/04 06:13:19;;;;;;;29.58;20.60;;;14.50;94.40;;;;;;6245214;23;20011;-88
2021/09/04 06:16:02;;;;;;;31.00;21.17;;;14.50;94.60;;;;;;6244643;23;20055;-88
2021/09/04 06:18:38;;;;;;;29.27;20.00;;;14.50;94.40;;;;;;6221549;23;20402;-89
2021/09/04 06:21:54;;;;;;;;;;;;;;;;;;;;;
2021/09/04 06:24:55;;;;;;;;;;;;;;;;;;;;;
2021/09/04 06:27:57;;;;;;;;;;;;;;;;;;;;;
2021/09/04 06:30:54;;;;;;;31.70;20.23;;;14.70;94.20;;;;;;6247239;23;20501;-89
2021/09/04 06:33:38;;;;;;;31.50;20.80;;;14.70;94.20;;;;;;6234994;23;20004;-89
2021/09/04 06:36:18;;;;;;;32.85;22.52;;;14.70;94.10;;;;;;6221110;23;20008;-89
2021/09/04 06:38:47;;;;;;;29.10;21.08;;;14.70;94.00;;;;;;6221530;23;20008;-89
2021/09/04 06:41:22;;;;;;;29.10;20.70;;;14.70;94.00;;;;;;6245473;23;20422;-91
2021/09/04 06:43:55;;;;;;;28.92;20.63;;;14.70;93.90;;;;;;6246280;23;20012;-89
2021/09/04 06:49:41;;;;;;;28.05;18.65;;;14.70;93.90;;;;;;6218864;23;20039;-91
2021/09/04 06:52:23;;;;;;;28.45;19.23;;;14.80;93.90;;;;;;6242677;23;20326;-86
2021/09/04 06:54:52;;;;;;;28.50;19.58;;;14.80;93.80;;;;;;6238738;23;20008;-87
2021/09/04 06:57:18;;;;;;;26.75;18.65;;;14.80;93.60;;;;;;6242886;22;20457;-87
2021/09/04 07:00:07;;;;;;;27.45;19.83;;;14.70;93.60;;;;;;6242543;23;20004;-86
2021/09/04 07:02:38;;;;;;;23.40;16.90;;;14.70;93.50;;;;;;6240918;23;20082;-87
2021/09/04 07:05:06;;;;;;;25.23;17.15;;;14.70;93.50;;;;;;6215348;23;20048;-86
2021/09/04 07:07:37;;;;;;;21.60;16.35;;;14.70;93.50;;;;;;6242829;23;20007;-86
2021/09/04 07:10:14;;;;;;;21.95;16.75;;;14.80;93.50;;;;;;6244073;23;20012;-86
2021/09/04 07:12:42;;;;;;;23.73;16.85;;;14.80;93.40;;;;;;6244493;23;20445;-86
2021/09/04 07:15:11;;;;;;;23.88;17.95;;;14.80;93.30;;;;;;6218911;23;20496;-87
2021/09/04 07:17:42;;;;;;;23.65;17.65;;;14.90;93.20;;;;;;6245632;22;20365;-86
2021/09/04 07:20:09;;;;;;;20.70;15.85;;;14.90;93.00;;;;;;6244412;23;20007;-85
2021/09/04 07:22:44;;;;;;;19.27;15.63;;;14.90;93.00;;;;;;6243033;23;20022;-86
2021/09/04 07:25:17;;;;;;;23.23;16.13;;;15.00;93.00;;;;;;6244530;23;19997;-86
2021/09/04 07:27:44;;;;;;;22.40;16.20;;;15.00;92.90;;;;;;6244942;23;20452;-86
2021/09/04 07:30:20;;;;;;;;;;;;;;;;;;;;;
2021/09/04 07:32:49;;;;;;;19.42;15.02;;;15.00;92.70;;;;;;6245901;23;20075;-86
2021/09/04 07:35:27;;;;;;;22.48;15.30;;;15.00;92.60;;;;;;6245887;22;19996;-86
2021/09/04 07:37:55;;;;;;;23.63;16.08;;;15.10;92.60;;;;;;6220943;23;20015;-86
2021/09/04 07:40:29;;;;;;;18.58;13.90;;;15.10;92.40;;;;;;6217682;23;20061;-87
2021/09/04 07:42:56;;;;;;;23.38;15.25;;;15.10;92.40;;;;;;6244127;23;20094;-86
2021/09/04 07:45:27;;;;;;;19.20;14.63;;;15.10;92.30;;;;;;6244030;23;20326;-86
2021/09/04 07:48:18;;;;;;;21.50;13.85;;;15.10;92.20;;;;;;6219142;23;20004;-90
2021/09/04 07:51:35;;;;;;;19.27;14.35;;;15.10;92.10;;;;;;6245421;23;20011;-89
2021/09/04 07:54:06;;;;;;;18.63;13.70;;;15.20;92.10;;;;;;6246141;23;20006;-90
2021/09/04 07:59:20;;;;;;;18.58;13.25;;;15.30;91.80;;;;;;6230328;23;19945;-91
2021/09/04 08:02:12;;;;;;;18.38;13.27;;;15.30;91.90;;;;;;6246263;23;20000;-89
2021/09/04 08:04:38;;;;;;;18.58;14.13;;;15.30;91.80;;;;;;6242741;23;20420;-84
2021/09/04 08:07:04;;;;;;;22.35;15.18;;;15.30;91.80;;;;;;6243512;23;20085;-83
2021/09/04 08:09:30;;;;;;;18.25;13.90;;;15.40;91.70;;;;;;6244660;22;20008;-83
2021/09/04 08:11:55;;;;;;;17.77;13.25;;;15.30;91.50;;;;;;6217871;23;20004;-83
2021/09/04 08:14:21;;;;;;;16.27;12.93;;;15.40;91.50;;;;;;6218250;23;20009;-85
2021/09/04 08:16:47;;;;;;;15.68;13.10;;;15.40;91.60;;;;;;6218452;23;20122;-82
2021/09/04 08:19:12;;;;;;;17.90;13.93;;;15.40;91.50;;;;;;6243747;23;20023;-82
2021/09/04 08:21:39;;;;;;;18.83;13.63;;;15.40;91.30;;;;;;6242551;23;20268;-83
2021/09/04 08:24:04;;;;;;;20.48;13.30;;;15.40;91.10;;;;;;6243904;23;20065;-83
2021/09/04 08:26:30;;;;;;;16.10;12.98;;;15.40;91.10;;;;;;6244637;23;20063;-82
2021/09/04 08:28:56;;;;;;;18.23;13.18;;;15.40;91.00;;;;;;6243204;23;19996;-82
2021/09/04 08:31:21;;;;;;;15.93;11.70;;;15.50;91.00;;;;;;6244835;23;20476;-82
2021/09/04 08:33:47;;;;;;;16.83;13.20;;;15.50;91.10;;;;;;6243228;23;20027;-82
2021/09/04 08:36:13;;;;;;;16.80;12.45;;;15.50;90.90;;;;;;6218583;23;20031;-82
2021/09/04 08:38:39;;;;;;;15.95;11.82;;;15.50;90.90;;;;;;6244518;23;20004;-82
2021/09/04 08:41:05;;;;;;;17.35;12.23;;;15.60;91.00;;;;;;6243633;23;20307;-83
2021/09/04 08:43:30;;;;;;;15.90;11.88;;;15.70;91.10;;;;;;6217566;23;20008;-83
2021/09/04 08:45:57;;;;;;;15.95;12.13;;;15.70;91.00;;;;;;6243397;23;20040;-82
2021/09/04 08:48:23;;;;;;;20.13;13.43;;;15.80;91.00;;;;;;6217682;23;20000;-83
2021/09/04 08:50:52;;;;;;;18.52;13.10;;;15.80;90.80;;;;;;6243321;23;20054;-83
2021/09/04 08:53:19;;;;;;;19.75;13.18;;;15.80;90.80;;;;;;6217830;23;20008;-83
2021/09/04 08:55:45;;;;;;;16.63;12.35;;;15.80;90.60;;;;;;6217464;23;20371;-83
2021/09/04 08:58:10;;;;;;;21.58;13.70;;;15.80;90.60;;;;;;6217856;23;20053;-83
2021/09/04 09:00:38;;;;;;;15.45;11.57;;;15.80;90.50;;;;;;6217876;23;20011;-85
2021/09/04 09:03:04;;;;;;;15.50;11.52;;;15.90;90.50;;;;;;6242724;23;20520;-83
2021/09/04 09:05:43;;;;;;;16.67;12.73;;;15.90;90.40;;;;;;6242373;23;20008;-85
2021/09/04 09:08:22;;;;;;;16.10;11.98;;;16.00;90.40;;;;;;6218297;23;20001;-84
2021/09/04 09:10:48;;;;;;;14.23;11.55;;;16.00;90.40;;;;;;6243113;23;20377;-84
2021/09/04 09:13:19;;;;;;;15.27;11.13;;;16.10;90.40;;;;;;6243107;23;20299;-83
2021/09/04 09:15:45;;;;;;;15.07;10.82;;;16.10;90.50;;;;;;6217719;23;20390;-83
2021/09/04 09:18:13;;;;;;;17.83;12.55;;;16.20;90.40;;;;;;6215333;23;20008;-83
2021/09/04 09:20:41;;;;;;;16.27;12.30;;;16.20;90.30;;;;;;6241779;23;20045;-82
2021/09/04 09:23:08;;;;;;;16.70;11.70;;;16.20;90.10;;;;;;6241551;23;20004;-88
2021/09/04 09:25:34;;;;;;;14.38;11.40;;;16.20;90.20;;;;;;6241346;23;20062;-84
2021/09/04 09:28:06;;;;;;;14.57;12.20;;;16.30;90.20;;;;;;6242146;23;20490;-85
2021/09/04 09:30:39;;;;;;;16.77;13.35;;;16.40;90.40;;;;;;6241686;23;20022;-84
2021/09/04 09:33:06;;;;;;;17.65;13.23;;;16.40;90.00;;;;;;6240813;23;20039;-84
2021/09/04 09:35:38;;;;;;;14.48;12.38;;;16.50;89.70;;;;;;6240810;23;20083;-84
2021/09/04 09:38:14;;;;;;;17.33;12.68;;;16.40;89.10;;;;;;6236365;23;20004;-83
2021/09/04 09:40:40;;;;;;;14.85;11.15;;;16.50;89.30;;;;;;6240885;22;20330;-84
2021/09/04 09:43:24;;;;;;;12.88;10.77;;;16.60;89.60;;;;;;6209057;23;20036;-84
2021/09/04 09:45:58;;;;;;;15.15;11.68;;;16.70;89.80;;;;;;6238252;23;20000;-83
2021/09/04 09:48:26;;;;;;;14.32;11.68;;;16.70;89.50;;;;;;6238643;23;20098;-83
2021/09/04 09:50:54;;;;;;;15.27;11.88;;;16.80;89.40;;;;;;6237732;23;19996;-84
2021/09/04 09:53:21;;;;;;;16.33;11.95;;;16.80;89.20;;;;;;6236809;23;20004;-82
2021/09/04 09:55:49;;;;;;;15.00;12.90;;;16.90;88.90;;;;;;6215314;23;20011;-83
2021/09/04 09:58:16;;;;;;;14.82;11.60;;;16.90;88.40;;;;;;6238608;22;20001;-85
2021/09/04 10:00:43;;;;;;;15.20;12.50;;;16.90;88.40;;;;;;6240482;23;20071;-84
2021/09/04 10:03:11;;;;;;;15.38;12.23;;;17.00;87.90;;;;;;6207151;23;20449;-84
2021/09/04 10:05:38;;;;;;;16.20;12.45;;;17.00;87.60;;;;;;6207545;23;20016;-83
2021/09/04 10:08:04;;;;;;;15.88;11.98;;;17.10;87.20;;;;;;6203889;23;20048;-83
2021/09/04 10:10:40;;;;;;;14.60;11.15;;;17.10;87.30;;;;;;6213185;23;20003;-81
2021/09/04 10:13:06;;;;;;;15.30;12.30;;;17.20;87.50;;;;;;6186964;23;20009;-83
2021/09/04 10:15:35;;;;;;;17.67;12.50;;;17.20;87.30;;;;;;6213315;23;19997;-82
2021/09/04 10:18:04;;;;;;;17.35;12.13;;;17.20;86.80;;;;;;6212309;23;20001;-82
2021/09/04 10:20:31;;;;;;;14.25;11.57;;;17.20;86.70;;;;;;6210149;23;20005;-83
2021/09/04 10:23:09;;;;;;;15.05;11.40;;;17.30;86.30;;;;;;6185711;23;20327;-84
2021/09/04 10:25:35;;;;;;;15.05;11.63;;;17.30;86.40;;;;;;6187767;23;20024;-85
2021/09/04 10:28:02;;;;;;;15.65;11.90;;;17.40;86.20;;;;;;6208164;23;20331;-82
2021/09/04 10:30:38;;;;;;;14.30;12.20;;;17.40;86.20;;;;;;6209999;23;20442;-82
2021/09/04 10:33:05;;;;;;;14.52;11.10;;;17.50;86.10;;;;;;6185679;23;20330;-82
2021/09/04 10:35:51;;;;;;;15.68;11.77;;;17.60;85.90;;;;;;6210774;23;19997;-82
2021/09/04 10:38:20;;;;;;;14.68;11.68;;;17.60;86.10;;;;;;6209137;23;20421;-82
2021/09/04 10:40:47;;;;;;;12.23;10.20;;;17.70;86.10;;;;;;6209231;23;20004;-83
2021/09/04 10:43:18;;;;;;;14.90;11.38;;;17.70;86.20;;;;;;6210306;23;20583;-83
2021/09/04 10:45:48;;;;;;;13.40;10.77;;;17.80;86.40;;;;;;6211626;23;19992;-81
2021/09/04 10:48:17;;;;;;;15.75;10.05;;;17.80;86.30;;;;;;6213313;23;20470;-83
2021/09/04 10:51:03;;;;;;;12.80;10.20;;;17.90;86.50;;;;;;6212799;23;20001;-82
2021/09/04 10:53:47;;;;;;;13.95;10.18;;;18.00;86.40;;;;;;6215321;23;20011;-83
2021/09/04 10:56:23;;;;;;;13.85;10.77;;;18.00;85.80;;;;;;6212908;23;20005;-82
2021/09/04 10:58:51;;;;;;;12.35;9.45;;;18.10;85.80;;;;;;6187280;23;20004;-81
2021/09/04 11:01:28;;;;;;;15.68;11.52;;;18.10;85.70;;;;;;6213188;23;20000;-82
2021/09/04 11:03:55;;;;;;;14.07;11.40;;;18.20;85.30;;;;;;6212159;23;20005;-81
2021/09/04 11:06:24;;;;;;;14.73;10.63;;;18.30;84.60;;;;;;6188236;23;20096;-82
2021/09/04 11:08:51;;;;;;;13.38;10.13;;;18.30;84.70;;;;;;6211623;23;20012;-82
2021/09/04 11:11:36;;;;;;;11.90;8.77;;;18.40;84.70;;;;;;6212350;23;20001;-82
2021/09/04 11:14:20;;;;;;;13.85;9.45;;;18.50;84.90;;;;;;6211169;23;19997;-81
2021/09/04 11:16:51;;;;;;;11.52;8.57;;;18.50;84.40;;;;;;6213204;23;20368;-81
2021/09/04 11:19:37;;;;;;;14.18;10.45;;;18.60;84.00;;;;;;6213001;23;20004;-84
2021/09/04 11:22:14;;;;;;;13.02;10.10;;;18.60;83.60;;;;;;6210007;23;20012;-82
2021/09/04 11:24:49;;;;;;;12.27;8.18;;;18.70;83.30;;;;;;6211951;23;20383;-83
2021/09/04 11:27:17;;;;;;;12.18;9.15;;;18.70;83.60;;;;;;6187491;23;20001;-81
2021/09/04 11:29:53;;;;;;;15.90;9.98;;;18.80;83.70;;;;;;6211272;23;20327;-82
2021/09/04 11:32:21;;;;;;;14.82;9.15;;;18.80;83.20;;;;;;6212037;23;20005;-84
2021/09/04 11:34:49;;;;;;;14.93;10.23;;;18.90;83.20;;;;;;6211614;23;20091;-81
2021/09/04 11:37:31;;;;;;;13.88;10.20;;;19.00;82.80;;;;;;6211174;23;20330;-81
2021/09/04 11:40:25;;;;;;;14.27;10.65;;;19.00;82.40;;;;;;6213312;23;20135;-83
2021/09/04 11:42:51;;;;;;;12.52;10.48;;;19.00;81.80;;;;;;6211901;23;20013;-84
2021/09/04 11:45:21;;;;;;;11.30;9.48;;;19.00;81.40;;;;;;6186382;23;20331;-82
2021/09/04 11:47:51;;;;;;;10.32;8.88;;;19.10;81.20;;;;;;6211032;23;19996;-82
2021/09/04 11:50:22;;;;;;;10.95;8.70;;;19.10;81.00;;;;;;6214245;23;20107;-81
2021/09/04 11:52:49;;;;;;;10.75;8.77;;;19.20;81.00;;;;;;6213071;23;20035;-82
2021/09/04 11:55:17;;;;;;;13.70;9.38;;;19.20;81.20;;;;;;6212734;23;20031;-82
2021/09/04 11:57:48;;;;;;;11.52;9.10;;;19.30;81.00;;;;;;6212459;23;20001;-85
2021/09/04 12:00:21;;;;;;;12.48;8.70;;;19.30;81.00;;;;;;6212064;23;20350;-82
2021/09/04 12:02:48;;;;;;;12.63;8.95;;;19.40;81.20;;;;;;6210940;23;20008;-81
2021/09/04 12:05:15;;;;;;;10.68;8.35;;;19.50;80.80;;;;;;6211970;23;20452;-84
2021/09/04 12:07:42;;;;;;;12.00;9.18;;;19.50;80.80;;;;;;6211895;23;20087;-82
2021/09/04 12:10:10;;;;;;;11.80;8.55;;;19.50;80.70;;;;;;6211519;23;20001;-82
2021/09/04 12:12:37;;;;;;;11.82;9.07;;;19.50;80.90;;;;;;6213466;23;20087;-82
2021/09/04 12:15:05;;;;;;;14.70;9.85;;;19.60;80.30;;;;;;6210455;23;20675;-83
2021/09/04 12:17:32;;;;;;;13.43;8.68;;;19.60;79.30;;;;;;6186872;23;20106;-82
2021/09/04 12:20:11;;;;;;;12.35;8.20;;;19.60;79.60;;;;;;6212062;23;20431;-84
2021/09/04 12:22:37;;;;;;;11.75;9.40;;;19.70;79.50;;;;;;6212320;23;20012;-83
2021/09/04 12:25:03;;;;;;;16.83;10.60;;;19.70;79.50;;;;;;6213357;23;20005;-82
2021/09/04 12:27:45;;;;;;;14.43;10.27;;;19.70;79.30;;;;;;6211962;23;20047;-82
2021/09/04 12:30:11;;;;;;;12.23;8.60;;;19.70;78.80;;;;;;6187156;23;20448;-82
2021/09/04 12:32:37;;;;;;;13.90;10.40;;;19.80;79.30;;;;;;6211238;23;20005;-82
2021/09/04 12:35:06;;;;;;;11.77;9.63;;;19.80;79.20;;;;;;6211336;23;20004;-82
2021/09/04 12:37:33;;;;;;;15.27;10.35;;;19.90;79.50;;;;;;6187455;23;20028;-82
2021/09/04 12:40:13;;;;;;;9.75;8.18;;;19.80;79.30;;;;;;6186557;23;20004;-82
2021/09/04 12:42:40;;;;;;;10.38;8.35;;;19.90;79.80;;;;;;6211971;23;20328;-82
2021/09/04 12:45:08;;;;;;;9.50;8.07;;;19.90;79.90;;;;;;6211257;23;20008;-81
2021/09/04 12:47:42;;;;;;;13.75;10.15;;;20.00;79.60;;;;;;6211428;23;20008;-82
2021/09/04 12:50:18;;;;;;;12.20;9.02;;;20.00;79.00;;;;;;6211787;23;20902;-82
2021/09/04 12:52:44;;;;;;;12.27;9.25;;;20.10;78.90;;;;;;6208503;23;20327;-82
2021/09/04 12:55:09;;;;;;;12.63;9.23;;;20.10;78.40;;;;;;6211471;23;20005;-81
2021/09/04 12:57:35;;;;;;;11.35;8.13;;;20.10;78.50;;;;;;6210991;23;20009;-82
2021/09/04 13:00:09;;;;;;;10.50;7.65;;;20.20;78.70;;;;;;6211376;23;20064;-82
2021/09/04 13:02:40;;;;;;;12.45;8.85;;;20.20;79.10;;;;;;6211660;23;20445;-82
2021/09/04 13:05:09;;;;;;;;;;;20.20;78.50;;;;;;6186814;23;20112;-81
2021/09/04 13:07:47;;;;;;;11.77;8.73;;;20.20;78.40;;;;;;6210786;23;19978;-83
2021/09/04 13:10:18;;;;;;;11.95;9.32;;;20.20;78.60;;;;;;6211368;23;20384;-81
2021/09/04 13:12:44;;;;;;;10.65;8.98;;;20.30;78.10;;;;;;6213084;23;20059;-81
2021/09/04 13:15:10;;;;;;;12.05;8.68;;;20.30;78.40;;;;;;6186309;23;20343;-81
2021/09/04 13:17:37;;;;;;;10.00;8.32;;;20.30;78.40;;;;;;6186495;23;20008;-82
2021/09/04 13:20:04;;;;;;;11.77;8.75;;;20.40;78.70;;;;;;6186082;23;20005;-81
2021/09/04 13:22:32;;;;;;;11.82;8.68;;;20.40;78.40;;;;;;6211185;23;20024;-82
2021/09/04 13:24:58;;;;;;;13.38;10.88;;;20.40;78.30;;;;;;6186140;23;20004;-81
2021/09/04 13:27:24;;;;;;;12.93;9.57;;;20.50;77.50;;;;;;6212601;23;20403;-82
2021/09/04 13:29:49;;;;;;;11.77;8.85;;;20.50;77.80;;;;;;6211586;23;20013;-82
2021/09/04 13:32:15;;;;;;;12.63;9.23;;;20.60;77.80;;;;;;6211080;23;20035;-82
2021/09/04 13:34:41;;;;;;;10.70;8.68;;;20.60;77.80;;;;;;6186858;23;20440;-81
2021/09/04 13:37:06;;;;;;;11.52;9.27;;;20.60;78.00;;;;;;6185121;23;20446;-82
2021/09/04 13:39:32;;;;;;;11.13;8.60;;;20.60;77.80;;;;;;6209372;23;20024;-83
2021/09/04 13:41:58;;;;;;;13.88;8.75;;;20.60;78.10;;;;;;6208478;23;20079;-81
2021/09/04 13:44:24;;;;;;;12.07;8.88;;;20.70;77.50;;;;;;6211160;23;20011;-82
2021/09/04 13:46:49;;;;;;;10.70;8.55;;;20.70;77.80;;;;;;6209571;23;20036;-82
2021/09/04 13:49:15;;;;;;;12.55;9.88;;;20.70;77.90;;;;;;6186242;23;20303;-82
2021/09/04 13:51:41;;;;;;;12.00;9.43;;;20.70;77.50;;;;;;6185553;23;20008;-81
2021/09/04 13:54:08;;;;;;;12.00;8.98;;;20.80;77.30;;;;;;6186953;23;20062;-81
2021/09/04 13:56:34;;;;;;;12.63;9.73;;;20.80;77.40;;;;;;6187557;23;20008;-82
2021/09/04 13:59:01;;;;;;;12.45;8.30;;;20.90;76.80;;;;;;6212100;23;20477;-81
2021/09/04 14:01:26;;;;;;;12.05;9.70;;;20.90;77.10;;;;;;6212127;23;20001;-82
2021/09/04 14:03:52;;;;;;;10.75;8.20;;;20.90;76.70;;;;;;6187042;23;20009;-82
2021/09/04 14:06:18;;;;;;;11.65;8.77;;;21.00;76.80;;;;;;6186351;23;20021;-82
2021/09/04 14:08:44;;;;;;;13.70;8.90;;;21.00;76.90;;;;;;6211985;23;20005;-81
2021/09/04 14:11:10;;;;;;;11.38;8.55;;;21.00;76.60;;;;;;6211127;23;20367;-81
2021/09/04 14:13:35;;;;;;;11.98;8.05;;;21.00;76.80;;;;;;6212619;23;20005;-81
2021/09/04 14:16:01;;;;;;;8.75;7.75;;;21.10;77.00;;;;;;6211577;23;20518;-82
2021/09/04 14:18:27;;;;;;;13.05;8.98;;;21.10;77.30;;;;;;6212112;23;20004;-82
2021/09/04 14:20:52;;;;;;;11.52;8.85;;;21.10;77.30;;;;;;6188124;23;20012;-81
2021/09/04 14:23:18;;;;;;;12.27;9.32;;;21.10;76.80;;;;;;6211767;23;20019;-81
2021/09/04 14:25:44;;;;;;;12.43;9.45;;;21.10;76.30;;;;;;6188574;23;20427;-81
2021/09/04 14:28:10;;;;;;;11.20;8.38;;;21.10;76.30;;;;;;6210767;23;20004;-81
2021/09/04 14:30:35;;;;;;;13.82;9.40;;;21.20;76.50;;;;;;6186812;23;20067;-81
2021/09/04 14:33:01;;;;;;;12.43;9.77;;;21.20;76.30;;;;;;6186391;23;20005;-82
2021/09/04 14:35:27;;;;;;;11.68;8.25;;;21.20;75.80;;;;;;6211049;23;20001;-82
2021/09/04 14:37:53;;;;;;;11.38;8.95;;;21.20;75.70;;;;;;6210922;23;20034;-82
2021/09/04 14:40:19;;;;;;;9.95;8.15;;;21.20;75.90;;;;;;6187095;23;20091;-83
2021/09/04 14:42:46;;;;;;;11.27;8.85;;;21.20;76.20;;;;;;6186914;23;20186;-81
2021/09/04 14:45:13;;;;;;;13.55;8.35;;;21.20;76.20;;;;;;6187982;23;20009;-82